»·PEaware :: N872G O22-KBFI

N872G :: O22-KBFI

FLIGHT INFORMATION

Flight Status: Arrived
Operator: Privately registered:
United States
More flights under this callsign
Pilot: Gabor H. (24209)
Aircraft: CESSNA 510 CITATION MUSTANG
(C510)
More flights by this aircraft type
Origin: O22 Columbia
United States
Destination: KBFI Boeing Field/King Co Intl
United States
More flights between these airports :: More routes between these airports
Route: LIN J189 BTG OLM2
File this flight plan on PilotEdge
Remarks:
Altitude:
(Current/Filed)
38,000ft
Speed:
(Current/Filed)
340kts
Departed: 24-Oct-20 04:10 PM
Arrived: 24-Oct-20 06:22 PM
Distance/Time
Traveled:
576nm/2:11
Distance/Time
To Go:
Arrived

Flight Plot

Page will automatically refresh every two minutes.

Flight plan parsing failed; only flown route is shown


Map Options




Map Legend


Flown Route
Filed Route
Departure Airport
Arrival Airport
Navaid (VOR, NDB)
Fix

Horizontal Profiles

Position Reports

Time Latitude Longitude Heading Altitude Ground
Speed
24-Oct-20 15:52 38.030116 -120.411643 204 2098ft 0kts
24-Oct-20 15:53 38.030116 -120.411643 204 2098ft 0kts
24-Oct-20 15:54 38.030116 -120.411643 204 2098ft 0kts
24-Oct-20 15:55 38.030116 -120.411643 204 2098ft 0kts
24-Oct-20 15:56 38.030116 -120.411643 204 2098ft 0kts
24-Oct-20 15:57 38.030116 -120.411643 204 2098ft 0kts
24-Oct-20 15:58 38.030116 -120.411643 204 2098ft 0kts
24-Oct-20 15:59 38.030116 -120.411643 204 2098ft 0kts
24-Oct-20 16:00 38.030116 -120.411643 204 2098ft 0kts
24-Oct-20 16:01 38.030116 -120.411643 204 2098ft 0kts
24-Oct-20 16:02 38.030116 -120.411643 204 2098ft 0kts
24-Oct-20 16:03 38.030116 -120.411643 204 2098ft 0kts
24-Oct-20 16:04 38.030116 -120.411643 204 2098ft 0kts
24-Oct-20 16:05 38.030116 -120.411643 204 2098ft 0kts
24-Oct-20 16:06 38.030282 -120.412352 5 2094ft 11kts
24-Oct-20 16:07 38.033081 -120.411719 9 2114ft 10kts
24-Oct-20 16:08 38.036089 -120.411042 9 2128ft 11kts
24-Oct-20 16:09 38.034623 -120.412094 190 2114ft 57kts
24-Oct-20 16:10 37.997233 -120.419850 189 3728ft 180kts
24-Oct-20 16:11 37.942854 -120.435537 208 6398ft 211kts
24-Oct-20 16:12 37.939689 -120.495414 289 9170ft 218kts
24-Oct-20 16:13 37.959656 -120.569801 287 11717ft 230kts
24-Oct-20 16:14 37.980436 -120.647774 286 14135ft 238kts
24-Oct-20 16:15 38.001949 -120.728429 286 16395ft 245kts
24-Oct-20 16:16 38.024163 -120.812292 285 18287ft 259kts
24-Oct-20 16:17 38.047362 -120.900155 285 20091ft 266kts
24-Oct-20 16:18 38.072366 -120.989730 302 21715ft 276kts
24-Oct-20 16:19 38.146790 -121.015887 349 23282ft 290kts
24-Oct-20 16:20 38.227427 -121.029355 349 24685ft 295kts
24-Oct-20 16:21 38.309044 -121.043134 349 25973ft 298kts
24-Oct-20 16:22 38.391525 -121.057049 349 27141ft 302kts
24-Oct-20 16:23 38.475402 -121.071243 349 28211ft 306kts
24-Oct-20 16:24 38.559901 -121.085562 349 29207ft 309kts
24-Oct-20 16:25 38.645043 -121.100002 349 30203ft 309kts
24-Oct-20 16:26 38.730223 -121.114495 349 31196ft 309kts
24-Oct-20 16:27 38.815017 -121.128941 349 32184ft 307kts
24-Oct-20 16:28 38.899364 -121.143333 349 33173ft 306kts
24-Oct-20 16:29 38.982529 -121.158050 351 34166ft 299kts
24-Oct-20 16:30 39.063873 -121.172612 354 35130ft 292kts
24-Oct-20 16:31 39.141919 -121.185343 354 36091ft 286kts
24-Oct-20 16:32 39.221854 -121.198838 354 37112ft 281kts
24-Oct-20 16:33 39.301826 -121.212563 354 37795ft 286kts
24-Oct-20 16:34 39.383895 -121.226760 354 38013ft 298kts
24-Oct-20 16:35 39.469153 -121.241553 354 38009ft 302kts
24-Oct-20 16:36 39.554584 -121.256439 354 38000ft 305kts
24-Oct-20 16:37 39.641468 -121.271596 353 37975ft 308kts
24-Oct-20 16:38 39.728270 -121.286812 353 37962ft 309kts
24-Oct-20 16:39 39.816057 -121.302190 354 37961ft 309kts
24-Oct-20 16:40 39.902711 -121.317439 354 37960ft 309kts
24-Oct-20 16:41 39.990307 -121.332882 353 37960ft 309kts
24-Oct-20 16:42 40.077763 -121.348357 354 37962ft 309kts
24-Oct-20 16:43 40.162624 -121.363383 353 37972ft 309kts
24-Oct-20 16:44 40.250718 -121.379041 353 37970ft 310kts
24-Oct-20 16:45 40.338510 -121.394663 353 37968ft 311kts
24-Oct-20 16:46 40.426229 -121.410347 354 37967ft 311kts
24-Oct-20 16:47 40.514236 -121.426093 353 37962ft 311kts
24-Oct-20 16:48 40.602026 -121.441888 354 37950ft 311kts
24-Oct-20 16:49 40.690293 -121.457755 354 37944ft 311kts
24-Oct-20 16:50 40.777838 -121.473553 353 37943ft 311kts
24-Oct-20 16:51 40.866164 -121.489534 353 37942ft 311kts
24-Oct-20 16:52 40.953898 -121.505484 354 37941ft 310kts
24-Oct-20 16:53 41.041210 -121.520822 352 37956ft 308kts
24-Oct-20 16:54 41.127995 -121.536200 349 37978ft 306kts
24-Oct-20 16:55 41.213994 -121.552575 349 37994ft 306kts
24-Oct-20 16:56 41.300693 -121.568753 349 38014ft 305kts
24-Oct-20 16:57 41.386987 -121.584666 349 38021ft 305kts
24-Oct-20 16:58 41.473000 -121.600549 349 38025ft 305kts
24-Oct-20 16:59 41.559472 -121.616575 349 38024ft 305kts
24-Oct-20 17:00 41.645268 -121.632453 349 38023ft 305kts
24-Oct-20 17:01 41.731599 -121.648503 349 38023ft 305kts
24-Oct-20 17:02 41.817234 -121.664501 348 38026ft 305kts
24-Oct-20 17:03 41.903967 -121.680686 348 38025ft 305kts
24-Oct-20 17:04 41.990216 -121.696879 348 38024ft 305kts
24-Oct-20 17:05 42.076087 -121.713010 348 38024ft 305kts
24-Oct-20 17:06 42.161195 -121.729428 347 38031ft 305kts
24-Oct-20 17:07 42.247156 -121.748851 347 38030ft 306kts
24-Oct-20 17:08 42.333151 -121.768380 347 38029ft 307kts
24-Oct-20 17:09 42.419742 -121.788096 347 38029ft 307kts
24-Oct-20 17:10 42.505629 -121.807709 347 38028ft 307kts
24-Oct-20 17:12 42.592241 -121.827542 347 38027ft 307kts
24-Oct-20 17:13 42.677939 -121.847255 347 38026ft 307kts
24-Oct-20 17:14 42.764654 -121.867205 347 38025ft 306kts
24-Oct-20 17:15 42.850911 -121.887175 347 38024ft 306kts
24-Oct-20 17:16 42.936800 -121.906946 347 38024ft 306kts
24-Oct-20 17:17 43.022987 -121.926841 346 38023ft 305kts
24-Oct-20 17:18 43.106561 -121.946452 346 38032ft 305kts
24-Oct-20 17:19 43.191656 -121.966441 346 38041ft 305kts
24-Oct-20 17:20 43.277628 -121.986567 346 38111ft 304kts
24-Oct-20 17:21 43.362369 -122.006504 346 38192ft 303kts
24-Oct-20 17:22 43.447935 -122.026639 346 38211ft 304kts
24-Oct-20 17:23 43.532663 -122.046688 346 38229ft 304kts
24-Oct-20 17:24 43.618410 -122.067024 346 38230ft 304kts
24-Oct-20 17:25 43.703554 -122.087284 346 38226ft 305kts
24-Oct-20 17:26 43.789501 -122.107755 346 38225ft 305kts
24-Oct-20 17:27 43.874758 -122.128126 346 38224ft 305kts
24-Oct-20 17:28 43.960391 -122.148667 346 38224ft 304kts
24-Oct-20 17:29 44.045444 -122.169119 346 38221ft 304kts
24-Oct-20 17:29 44.113844 -122.185589 346 38225ft 304kts
24-Oct-20 17:31 44.213662 -122.209752 346 38217ft 305kts
24-Oct-20 17:31 44.284920 -122.227056 346 38214ft 306kts
24-Oct-20 17:33 44.385658 -122.251557 346 38207ft 306kts
24-Oct-20 17:33 44.456844 -122.268919 346 38199ft 307kts
24-Oct-20 17:35 44.557599 -122.293569 346 38205ft 306kts
24-Oct-20 17:35 44.629280 -122.311193 346 38213ft 306kts
24-Oct-20 17:36 44.714805 -122.332228 346 38220ft 305kts
24-Oct-20 17:37 44.800612 -122.353367 346 38230ft 305kts
24-Oct-20 17:38 44.885865 -122.374506 346 38234ft 305kts
24-Oct-20 17:39 44.971652 -122.395911 346 38232ft 304kts
24-Oct-20 17:40 45.056114 -122.416776 344 38228ft 301kts
24-Oct-20 17:41 45.137963 -122.437159 342 38242ft 294kts
24-Oct-20 17:42 45.219076 -122.457842 342 38251ft 289kts
24-Oct-20 17:43 45.299426 -122.478164 342 38259ft 286kts
24-Oct-20 17:44 45.379117 -122.498257 342 38261ft 284kts
24-Oct-20 17:45 45.457831 -122.518090 342 38265ft 283kts
24-Oct-20 17:46 45.537007 -122.538121 342 38264ft 282kts
24-Oct-20 17:47 45.615416 -122.557885 342 38261ft 281kts
24-Oct-20 17:48 45.694011 -122.577845 342 38259ft 281kts
24-Oct-20 17:49 45.773622 -122.598077 342 37582ft 296kts
24-Oct-20 17:50 45.856974 -122.618679 342 36162ft 300kts
24-Oct-20 17:51 45.940603 -122.639503 343 34792ft 299kts
24-Oct-20 17:52 46.023619 -122.660317 342 33462ft 302kts
24-Oct-20 17:53 46.106952 -122.681144 342 32141ft 308kts
24-Oct-20 17:54 46.193549 -122.702892 342 30774ft 314kts
24-Oct-20 17:55 46.280880 -122.724983 342 29364ft 317kts
24-Oct-20 17:56 46.369659 -122.747436 342 27926ft 318kts
24-Oct-20 17:57 46.458817 -122.770065 342 26490ft 320kts
24-Oct-20 17:58 46.545897 -122.792038 341 25075ft 299kts
24-Oct-20 17:59 46.629158 -122.813484 341 23743ft 303kts
24-Oct-20 18:00 46.714784 -122.835535 341 22363ft 306kts
24-Oct-20 18:01 46.798375 -122.856969 341 21011ft 298kts
24-Oct-20 18:02 46.880496 -122.878116 341 19683ft 286kts
24-Oct-20 18:03 46.960285 -122.897955 348 18438ft 292kts
24-Oct-20 18:04 47.034198 -122.822433 31 17178ft 334kts
24-Oct-20 18:05 47.103388 -122.734064 31 15690ft 325kts
24-Oct-20 18:06 47.172537 -122.645527 31 14174ft 319kts
24-Oct-20 18:07 47.239853 -122.558968 32 12934ft 309kts
24-Oct-20 18:08 47.306851 -122.475777 15 12922ft 300kts
24-Oct-20 18:09 47.386530 -122.455832 358 12055ft 280kts
24-Oct-20 18:10 47.462043 -122.440222 358 10326ft 261kts
24-Oct-20 18:11 47.533320 -122.428808 358 8311ft 249kts
24-Oct-20 18:12 47.597982 -122.440391 335 6258ft 217kts
24-Oct-20 18:13 47.652285 -122.475332 335 4200ft 201kts
24-Oct-20 18:14 47.700282 -122.506679 352 3962ft 179kts
24-Oct-20 18:15 47.712957 -122.439316 95 3979ft 204kts
24-Oct-20 18:16 47.685095 -122.369375 159 3920ft 204kts
24-Oct-20 18:17 47.636802 -122.360192 175 2747ft 164kts
24-Oct-20 18:18 47.595337 -122.350470 161 1537ft 123kts
24-Oct-20 18:19 47.566160 -122.332875 150 857ft 109kts
24-Oct-20 18:20 47.539956 -122.310850 149 55ft 103kts
24-Oct-20 18:21 47.530898 -122.303001 145 20ft 22kts
24-Oct-20 18:22 47.530425 -122.301598 72 21ft 0kts
24-Oct-20 18:23 47.530121 -122.299311 117 22ft 24kts
24-Oct-20 18:24 47.529475 -122.297951 148 23ft 0kts

Navigation Log

Ident Type
Flight plan parsing failed, navigation log unavailable